Terminal Aerodrome Forecast
Issued by NWS

Home | Current Version | Previous Version | Text Only | Print | Product List | Glossary On
Versions: 1 2 3 4 5 6 7 8 9 10 11 12 13 14 15 16 17 18 19 20 21 22 23 24 25 26 27 28 29 30 31 32 33 34 35 36 37 38 39
000
FTUS43 KDMX 011142
TAFOTM
TAF
KOTM 011142Z 0112/0212 VRB04KT P6SM VCSH SCT015 BKN035
     FM011500 26010KT P6SM BKN040
     FM011900 29010KT P6SM VCSH BKN030
     FM012300 32005KT P6SM SCT030 BKN080
     FM020300 VRB04KT P6SM SCT050
     FM020900 VRB03KT 5SM BR SCT020=

USA.gov is the U.S. government's official web portal to all federal, state and local government web resources and services.